sensor_id;sensor_type;location;lat;lon;timestamp;pressure;altitude;pressure_sealevel;temperature;humidity
61618;BME280;47518;51.776;9.370;2023-03-22T00:00:52;99821.19;;;9.00;88.50
61618;BME280;47518;51.776;9.370;2023-03-22T00:03:18;99816.34;;;8.87;89.60
61618;BME280;47518;51.776;9.370;2023-03-22T00:05:44;99804.63;;;8.95;88.48
61618;BME280;47518;51.776;9.370;2023-03-22T00:08:10;99811.47;;;8.83;89.96
61618;BME280;47518;51.776;9.370;2023-03-22T00:10:39;99806.34;;;8.88;89.41
61618;BME280;47518;51.776;9.370;2023-03-22T00:13:07;99811.56;;;8.89;89.13
61618;BME280;47518;51.776;9.370;2023-03-22T00:15:33;99814.63;;;8.94;89.76
61618;BME280;47518;51.776;9.370;2023-03-22T00:17:58;99816.16;;;8.89;89.26
61618;BME280;47518;51.776;9.370;2023-03-22T00:20:27;99813.44;;;8.89;89.56
61618;BME280;47518;51.776;9.370;2023-03-22T00:22:55;99812.78;;;8.87;89.92
61618;BME280;47518;51.776;9.370;2023-03-22T00:25:21;99809.22;;;8.86;89.93
61618;BME280;47518;51.776;9.370;2023-03-22T00:27:46;99810.78;;;8.81;89.15
61618;BME280;47518;51.776;9.370;2023-03-22T00:30:12;99806.91;;;8.75;89.05
61618;BME280;47518;51.776;9.370;2023-03-22T00:32:37;99811.13;;;8.77;89.95
61618;BME280;47518;51.776;9.370;2023-03-22T00:35:04;99799.78;;;8.82;89.19
61618;BME280;47518;51.776;9.370;2023-03-22T00:37:30;99799.22;;;8.87;88.61
61618;BME280;47518;51.776;9.370;2023-03-22T00:40:00;99804.16;;;8.83;89.59
61618;BME280;47518;51.776;9.370;2023-03-22T00:42:25;99803.00;;;8.77;90.03
61618;BME280;47518;51.776;9.370;2023-03-22T00:44:51;99801.19;;;8.70;89.31
61618;BME280;47518;51.776;9.370;2023-03-22T00:47:17;99802.34;;;8.75;89.91
61618;BME280;47518;51.776;9.370;2023-03-22T00:49:42;99799.13;;;8.80;89.57
61618;BME280;47518;51.776;9.370;2023-03-22T00:52:07;99799.25;;;8.78;90.03
61618;BME280;47518;51.776;9.370;2023-03-22T00:54:33;99796.25;;;8.73;89.81
61618;BME280;47518;51.776;9.370;2023-03-22T00:56:58;99776.25;;;8.74;89.55
61618;BME280;47518;51.776;9.370;2023-03-22T00:59:24;99785.06;;;8.76;89.63
61618;BME280;47518;51.776;9.370;2023-03-22T01:01:49;99782.97;;;8.87;89.73
61618;BME280;47518;51.776;9.370;2023-03-22T01:04:14;99774.88;;;8.78;90.27
61618;BME280;47518;51.776;9.370;2023-03-22T01:06:44;99775.91;;;8.77;90.05
61618;BME280;47518;51.776;9.370;2023-03-22T01:09:11;99769.34;;;8.72;91.01
61618;BME280;47518;51.776;9.370;2023-03-22T01:11:40;99770.44;;;8.86;90.08
61618;BME280;47518;51.776;9.370;2023-03-22T01:14:06;99777.94;;;8.75;89.55
61618;BME280;47518;51.776;9.370;2023-03-22T01:16:43;99777.72;;;8.85;89.46
61618;BME280;47518;51.776;9.370;2023-03-22T01:19:12;99769.44;;;8.78;89.64
61618;BME280;47518;51.776;9.370;2023-03-22T01:21:43;99765.50;;;8.89;89.11
61618;BME280;47518;51.776;9.370;2023-03-22T01:24:10;99765.16;;;8.92;89.44
61618;BME280;47518;51.776;9.370;2023-03-22T01:26:35;99765.31;;;8.91;89.28
61618;BME280;47518;51.776;9.370;2023-03-22T01:29:02;99757.84;;;8.70;90.17
61618;BME280;47518;51.776;9.370;2023-03-22T01:31:27;99758.28;;;8.82;89.82
61618;BME280;47518;51.776;9.370;2023-03-22T01:33:52;99754.72;;;8.81;89.57
61618;BME280;47518;51.776;9.370;2023-03-22T01:36:18;99749.97;;;8.83;88.80
61618;BME280;47518;51.776;9.370;2023-03-22T01:38:43;99752.16;;;8.80;89.38
61618;BME280;47518;51.776;9.370;2023-03-22T01:41:08;99748.75;;;8.55;91.03
61618;BME280;47518;51.776;9.370;2023-03-22T01:43:34;99750.00;;;8.75;89.69
61618;BME280;47518;51.776;9.370;2023-03-22T01:45:59;99750.19;;;8.73;90.19
61618;BME280;47518;51.776;9.370;2023-03-22T01:48:27;99744.13;;;8.63;90.47
61618;BME280;47518;51.776;9.370;2023-03-22T01:51:04;99745.31;;;8.69;90.50
61618;BME280;47518;51.776;9.370;2023-03-22T01:53:37;99742.75;;;8.67;90.65
61618;BME280;47518;51.776;9.370;2023-03-22T01:56:04;99741.44;;;8.63;89.60
61618;BME280;47518;51.776;9.370;2023-03-22T01:58:31;99733.63;;;8.68;89.66
61618;BME280;47518;51.776;9.370;2023-03-22T02:00:58;99740.72;;;8.69;89.76
61618;BME280;47518;51.776;9.370;2023-03-22T02:03:31;99734.72;;;8.82;89.73
61618;BME280;47518;51.776;9.370;2023-03-22T02:05:59;99727.72;;;8.88;88.40
61618;BME280;47518;51.776;9.370;2023-03-22T02:08:25;99738.47;;;8.81;89.17
61618;BME280;47518;51.776;9.370;2023-03-22T02:10:51;99728.53;;;8.65;89.69
61618;BME280;47518;51.776;9.370;2023-03-22T02:13:28;99730.84;;;8.76;89.40
61618;BME280;47518;51.776;9.370;2023-03-22T02:16:15;99729.16;;;8.75;89.04
61618;BME280;47518;51.776;9.370;2023-03-22T02:21:41;99719.13;;;8.53;90.16
61618;BME280;47518;51.776;9.370;2023-03-22T02:27:17;99715.56;;;8.84;89.98
61618;BME280;47518;51.776;9.370;2023-03-22T02:35:50;99713.94;;;8.74;89.82
61618;BME280;47518;51.776;9.370;2023-03-22T02:38:51;99712.44;;;8.95;88.75
61618;BME280;47518;51.776;9.370;2023-03-22T02:41:39;99724.47;;;8.69;89.68
61618;BME280;47518;51.776;9.370;2023-03-22T02:44:20;99718.66;;;8.81;88.93
61618;BME280;47518;51.776;9.370;2023-03-22T02:46:59;99719.34;;;8.74;88.86
61618;BME280;47518;51.776;9.370;2023-03-22T02:49:35;99719.38;;;8.66;90.04
61618;BME280;47518;51.776;9.370;2023-03-22T02:52:15;99718.47;;;8.82;89.82
61618;BME280;47518;51.776;9.370;2023-03-22T02:54:51;99721.94;;;8.91;88.83
61618;BME280;47518;51.776;9.370;2023-03-22T02:57:32;99713.22;;;8.81;89.12
61618;BME280;47518;51.776;9.370;2023-03-22T03:00:02;99714.72;;;8.83;89.42
61618;BME280;47518;51.776;9.370;2023-03-22T03:02:33;99706.50;;;8.91;89.10
61618;BME280;47518;51.776;9.370;2023-03-22T03:05:03;99705.09;;;9.03;88.58
61618;BME280;47518;51.776;9.370;2023-03-22T03:07:29;99711.94;;;8.91;89.52
61618;BME280;47518;51.776;9.370;2023-03-22T03:09:55;99702.97;;;8.91;88.32
61618;BME280;47518;51.776;9.370;2023-03-22T03:12:24;99699.94;;;8.63;90.62
61618;BME280;47518;51.776;9.370;2023-03-22T03:14:50;99703.69;;;8.85;88.59
61618;BME280;47518;51.776;9.370;2023-03-22T03:28:58;99694.81;;;8.68;89.93
61618;BME280;47518;51.776;9.370;2023-03-22T03:31:49;99697.59;;;8.60;90.28
61618;BME280;47518;51.776;9.370;2023-03-22T03:34:24;99701.00;;;8.85;89.87
61618;BME280;47518;51.776;9.370;2023-03-22T03:36:57;99690.13;;;8.62;90.72
61618;BME280;47518;51.776;9.370;2023-03-22T03:39:27;99684.06;;;8.60;90.73
61618;BME280;47518;51.776;9.370;2023-03-22T03:41:55;99687.72;;;8.67;90.80
61618;BME280;47518;51.776;9.370;2023-03-22T03:44:21;99680.28;;;8.69;90.39
61618;BME280;47518;51.776;9.370;2023-03-22T03:46:50;99677.72;;;8.67;90.85
61618;BME280;47518;51.776;9.370;2023-03-22T03:49:21;99674.09;;;8.52;91.72
61618;BME280;47518;51.776;9.370;2023-03-22T03:51:50;99671.31;;;8.68;90.40
61618;BME280;47518;51.776;9.370;2023-03-22T03:54:20;99673.88;;;8.62;90.64
61618;BME280;47518;51.776;9.370;2023-03-22T03:56:48;99664.25;;;8.82;89.58
61618;BME280;47518;51.776;9.370;2023-03-22T03:59:16;99666.88;;;8.67;89.60
61618;BME280;47518;51.776;9.370;2023-03-22T04:01:43;99663.28;;;8.75;90.22
61618;BME280;47518;51.776;9.370;2023-03-22T04:04:20;99671.31;;;8.68;90.40
61618;BME280;47518;51.776;9.370;2023-03-22T04:06:51;99671.34;;;8.60;90.36
61618;BME280;47518;51.776;9.370;2023-03-22T04:09:22;99657.56;;;8.70;90.11
61618;BME280;47518;51.776;9.370;2023-03-22T04:11:48;99664.97;;;8.76;90.10
61618;BME280;47518;51.776;9.370;2023-03-22T04:14:14;99662.31;;;8.68;90.98
61618;BME280;47518;51.776;9.370;2023-03-22T04:16:41;99662.19;;;8.61;91.02
61618;BME280;47518;51.776;9.370;2023-03-22T04:19:06;99657.19;;;8.73;90.25
61618;BME280;47518;51.776;9.370;2023-03-22T04:21:32;99645.38;;;8.66;89.78
61618;BME280;47518;51.776;9.370;2023-03-22T04:24:03;99643.03;;;8.63;90.39
61618;BME280;47518;51.776;9.370;2023-03-22T04:26:32;99638.03;;;8.52;91.28
61618;BME280;47518;51.776;9.370;2023-03-22T04:28:57;99642.34;;;8.69;89.63
61618;BME280;47518;51.776;9.370;2023-03-22T04:31:26;99643.22;;;8.61;90.34
61618;BME280;47518;51.776;9.370;2023-03-22T04:33:52;99637.34;;;8.58;90.46
61618;BME280;47518;51.776;9.370;2023-03-22T04:36:22;99640.28;;;8.48;90.82
61618;BME280;47518;51.776;9.370;2023-03-22T04:38:49;99645.19;;;8.67;90.64
61618;BME280;47518;51.776;9.370;2023-03-22T04:41:15;99633.78;;;8.57;90.19
61618;BME280;47518;51.776;9.370;2023-03-22T04:43:41;99639.03;;;8.59;91.13
61618;BME280;47518;51.776;9.370;2023-03-22T04:46:07;99633.88;;;8.64;90.03
61618;BME280;47518;51.776;9.370;2023-03-22T04:48:35;99636.31;;;8.59;90.99
61618;BME280;47518;51.776;9.370;2023-03-22T04:51:03;99630.38;;;8.55;90.13
61618;BME280;47518;51.776;9.370;2023-03-22T04:53:29;99638.88;;;8.52;90.26
61618;BME280;47518;51.776;9.370;2023-03-22T04:55:55;99640.19;;;8.56;90.89
61618;BME280;47518;51.776;9.370;2023-03-22T04:58:22;99647.47;;;8.56;90.47
61618;BME280;47518;51.776;9.370;2023-03-22T05:00:49;99649.91;;;8.51;90.13
61618;BME280;47518;51.776;9.370;2023-03-22T05:03:18;99659.91;;;8.50;91.33
61618;BME280;47518;51.776;9.370;2023-03-22T05:05:51;99651.78;;;8.50;91.32
61618;BME280;47518;51.776;9.370;2023-03-22T05:08:19;99652.06;;;8.55;90.14
61618;BME280;47518;51.776;9.370;2023-03-22T05:10:45;99640.28;;;8.48;89.84
61618;BME280;47518;51.776;9.370;2023-03-22T05:13:11;99644.47;;;8.51;90.59
61618;BME280;47518;51.776;9.370;2023-03-22T05:15:38;99645.97;;;8.53;89.87
61618;BME280;47518;51.776;9.370;2023-03-22T05:18:05;99648.16;;;8.58;90.32
61618;BME280;47518;51.776;9.370;2023-03-22T05:20:32;99647.00;;;8.52;90.80
61618;BME280;47518;51.776;9.370;2023-03-22T05:22:57;99638.94;;;8.44;90.87
61618;BME280;47518;51.776;9.370;2023-03-22T05:25:26;99639.78;;;8.44;90.70
61618;BME280;47518;51.776;9.370;2023-03-22T05:27:52;99644.97;;;8.54;91.08
61618;BME280;47518;51.776;9.370;2023-03-22T05:30:18;99640.56;;;8.53;90.09
61618;BME280;47518;51.776;9.370;2023-03-22T05:32:44;99641.72;;;8.59;90.63
61618;BME280;47518;51.776;9.370;2023-03-22T05:35:11;99635.47;;;8.58;90.00
61618;BME280;47518;51.776;9.370;2023-03-22T05:37:37;99643.94;;;8.55;90.15
61618;BME280;47518;51.776;9.370;2023-03-22T05:40:02;99640.88;;;8.58;89.83
61618;BME280;47518;51.776;9.370;2023-03-22T05:42:29;99633.28;;;8.54;90.50
61618;BME280;47518;51.776;9.370;2023-03-22T05:44:55;99631.81;;;8.43;90.51
61618;BME280;47518;51.776;9.370;2023-03-22T05:47:20;99625.53;;;8.51;90.13
61618;BME280;47518;51.776;9.370;2023-03-22T05:49:46;99637.44;;;8.33;91.48
61618;BME280;47518;51.776;9.370;2023-03-22T05:52:11;99634.59;;;8.35;91.76
61618;BME280;47518;51.776;9.370;2023-03-22T05:54:37;99633.50;;;8.44;90.65
61618;BME280;47518;51.776;9.370;2023-03-22T05:57:02;99620.88;;;8.36;90.78
61618;BME280;47518;51.776;9.370;2023-03-22T05:59:28;99620.91;;;8.28;91.95
61618;BME280;47518;51.776;9.370;2023-03-22T06:01:53;99622.94;;;8.26;91.98
61618;BME280;47518;51.776;9.370;2023-03-22T06:04:20;99619.75;;;8.23;92.37
61618;BME280;47518;51.776;9.370;2023-03-22T06:06:46;99629.75;;;8.22;92.83
61618;BME280;47518;51.776;9.370;2023-03-22T06:09:14;99632.91;;;8.34;91.43
61618;BME280;47518;51.776;9.370;2023-03-22T06:48:31;99614.31;;;8.54;91.17
61618;BME280;47518;51.776;9.370;2023-03-22T06:48:33;99620.94;;;8.74;89.74
61618;BME280;47518;51.776;9.370;2023-03-22T06:51:02;99615.09;;;8.85;89.83
61618;BME280;47518;51.776;9.370;2023-03-22T06:53:35;99611.81;;;8.90;88.45
61618;BME280;47518;51.776;9.370;2023-03-22T06:56:04;99608.41;;;8.96;87.97
61618;BME280;47518;51.776;9.370;2023-03-22T06:58:33;99612.72;;;9.05;88.84
61618;BME280;47518;51.776;9.370;2023-03-22T07:01:04;99607.19;;;9.13;88.16
61618;BME280;47518;51.776;9.370;2023-03-22T07:03:32;99603.56;;;9.21;87.41
61618;BME280;47518;51.776;9.370;2023-03-22T07:06:01;99609.66;;;9.38;87.36
61618;BME280;47518;51.776;9.370;2023-03-22T07:08:30;99605.75;;;9.40;86.91
61618;BME280;47518;51.776;9.370;2023-03-22T07:10:56;99599.28;;;9.56;86.22
61618;BME280;47518;51.776;9.370;2023-03-22T07:13:22;99607.31;;;9.79;85.49
61618;BME280;47518;51.776;9.370;2023-03-22T07:15:48;99602.34;;;9.82;84.53
61618;BME280;47518;51.776;9.370;2023-03-22T07:18:13;99604.25;;;10.18;83.64
61618;BME280;47518;51.776;9.370;2023-03-22T07:20:39;99592.47;;;10.11;83.22
61618;BME280;47518;51.776;9.370;2023-03-22T07:23:41;99591.25;;;10.13;82.57
61618;BME280;47518;51.776;9.370;2023-03-22T07:26:22;99601.75;;;10.31;82.83
61618;BME280;47518;51.776;9.370;2023-03-22T07:28:56;99606.06;;;10.47;81.80
61618;BME280;47518;51.776;9.370;2023-03-22T07:31:25;99608.00;;;10.53;80.66
61618;BME280;47518;51.776;9.370;2023-03-22T07:33:57;99600.06;;;10.51;80.85
61618;BME280;47518;51.776;9.370;2023-03-22T07:39:45;99580.63;;;10.76;79.32
61618;BME280;47518;51.776;9.370;2023-03-22T07:42:17;99590.09;;;10.59;79.44
61618;BME280;47518;51.776;9.370;2023-03-22T07:45:02;99598.84;;;10.54;81.01
61618;BME280;47518;51.776;9.370;2023-03-22T07:47:40;99596.25;;;10.46;81.15
61618;BME280;47518;51.776;9.370;2023-03-22T07:50:07;99594.69;;;10.37;82.15
61618;BME280;47518;51.776;9.370;2023-03-22T07:52:38;99595.09;;;10.55;81.46
61618;BME280;47518;51.776;9.370;2023-03-22T07:55:11;99583.41;;;10.40;81.72
61618;BME280;47518;51.776;9.370;2023-03-22T07:58:02;99580.69;;;10.40;82.03
61618;BME280;47518;51.776;9.370;2023-03-22T08:00:27;99572.00;;;10.66;79.83
61618;BME280;47518;51.776;9.370;2023-03-22T08:02:56;99577.47;;;10.72;81.31
61618;BME280;47518;51.776;9.370;2023-03-22T08:05:28;99567.25;;;10.53;81.34
61618;BME280;47518;51.776;9.370;2023-03-22T08:15:15;99586.75;;;11.06;79.71
61618;BME280;47518;51.776;9.370;2023-03-22T08:17:40;99569.69;;;11.19;78.68
61618;BME280;47518;51.776;9.370;2023-03-22T08:20:16;99563.66;;;11.23;79.54
61618;BME280;47518;51.776;9.370;2023-03-22T08:22:50;99572.19;;;11.48;77.34
61618;BME280;47518;51.776;9.370;2023-03-22T08:25:38;99552.38;;;11.33;77.04
61618;BME280;47518;51.776;9.370;2023-03-22T08:28:16;99576.88;;;11.33;78.04
61618;BME280;47518;51.776;9.370;2023-03-22T08:30:48;99551.19;;;11.42;77.20
61618;BME280;47518;51.776;9.370;2023-03-22T08:44:05;99567.00;;;11.25;78.41
61618;BME280;47518;51.776;9.370;2023-03-22T08:52:12;99539.19;;;11.30;77.04
61618;BME280;47518;51.776;9.370;2023-03-22T09:00:54;99546.56;;;11.36;75.65
61618;BME280;47518;51.776;9.370;2023-03-22T09:04:01;99548.94;;;11.52;76.03
61618;BME280;47518;51.776;9.370;2023-03-22T09:07:12;99543.72;;;11.57;75.09
61618;BME280;47518;51.776;9.370;2023-03-22T09:12:43;99527.84;;;11.61;75.02
61618;BME280;47518;51.776;9.370;2023-03-22T09:15:29;99544.19;;;11.67;74.45
61618;BME280;47518;51.776;9.370;2023-03-22T09:18:13;99519.31;;;11.77;73.51
61618;BME280;47518;51.776;9.370;2023-03-22T10:16:11;99471.88;;;13.25;65.58
61618;BME280;47518;51.776;9.370;2023-03-22T10:22:24;99468.72;;;13.80;62.79
61618;BME280;47518;51.776;9.370;2023-03-22T10:25:46;99465.69;;;13.94;64.21
61618;BME280;47518;51.776;9.370;2023-03-22T10:32:35;99444.53;;;13.83;62.39
61618;BME280;47518;51.776;9.370;2023-03-22T10:35:35;99448.06;;;13.90;62.62
61618;BME280;47518;51.776;9.370;2023-03-22T10:38:41;99458.00;;;13.78;63.01
61618;BME280;47518;51.776;9.370;2023-03-22T10:42:00;99446.72;;;13.99;60.53
61618;BME280;47518;51.776;9.370;2023-03-22T10:45:13;99444.59;;;14.65;59.03
61618;BME280;47518;51.776;9.370;2023-03-22T10:48:09;99451.91;;;14.71;58.52
61618;BME280;47518;51.776;9.370;2023-03-22T10:50:52;99459.47;;;14.69;58.70
61618;BME280;47518;51.776;9.370;2023-03-22T10:56:51;99443.38;;;15.77;55.83
61618;BME280;47518;51.776;9.370;2023-03-22T11:03:29;99443.16;;;15.60;54.09
61618;BME280;47518;51.776;9.370;2023-03-22T11:07:13;99427.59;;;16.32;52.52
61618;BME280;47518;51.776;9.370;2023-03-22T11:47:42;99457.34;;;14.96;56.92
61618;BME280;47518;51.776;9.370;2023-03-22T11:54:37;99464.06;;;14.75;56.48
61618;BME280;47518;51.776;9.370;2023-03-22T11:57:30;99457.97;;;14.16;58.86
61618;BME280;47518;51.776;9.370;2023-03-22T12:00:22;99453.00;;;14.07;59.34
61618;BME280;47518;51.776;9.370;2023-03-22T12:02:55;99453.44;;;14.04;59.62
61618;BME280;47518;51.776;9.370;2023-03-22T12:05:25;99460.59;;;14.05;59.55
61618;BME280;47518;51.776;9.370;2023-03-22T12:11:09;99451.47;;;14.42;58.45
61618;BME280;47518;51.776;9.370;2023-03-22T12:13:45;99457.16;;;14.41;58.90
61618;BME280;47518;51.776;9.370;2023-03-22T12:16:14;99464.50;;;14.97;57.50
61618;BME280;47518;51.776;9.370;2023-03-22T12:18:53;99460.50;;;14.74;56.42
61618;BME280;47518;51.776;9.370;2023-03-22T12:21:24;99453.09;;;15.00;55.54
61618;BME280;47518;51.776;9.370;2023-03-22T12:23:53;99455.97;;;14.62;56.96
61618;BME280;47518;51.776;9.370;2023-03-22T12:26:24;99440.88;;;14.77;57.16
61618;BME280;47518;51.776;9.370;2023-03-22T12:29:18;99453.69;;;14.58;58.40
61618;BME280;47518;51.776;9.370;2023-03-22T12:31:59;99450.78;;;14.53;57.69
61618;BME280;47518;51.776;9.370;2023-03-22T12:34:37;99450.06;;;14.33;58.72
61618;BME280;47518;51.776;9.370;2023-03-22T12:37:06;99447.81;;;14.23;58.33
61618;BME280;47518;51.776;9.370;2023-03-22T12:52:50;99421.41;;;14.11;59.23
61618;BME280;47518;51.776;9.370;2023-03-22T12:55:24;99418.91;;;14.09;58.17
61618;BME280;47518;51.776;9.370;2023-03-22T12:57:59;99417.25;;;14.33;57.72
61618;BME280;47518;51.776;9.370;2023-03-22T13:00:31;99407.72;;;14.49;57.50
61618;BME280;47518;51.776;9.370;2023-03-22T13:03:06;99402.47;;;14.47;56.09
61618;BME280;47518;51.776;9.370;2023-03-22T13:05:33;99405.41;;;14.46;56.45
61618;BME280;47518;51.776;9.370;2023-03-22T13:08:01;99401.31;;;14.30;58.08
61618;BME280;47518;51.776;9.370;2023-03-22T13:24:18;99387.88;;;14.53;55.50
61618;BME280;47518;51.776;9.370;2023-03-22T13:26:52;99391.81;;;14.82;54.93
61618;BME280;47518;51.776;9.370;2023-03-22T13:29:22;99386.53;;;14.63;54.26
61618;BME280;47518;51.776;9.370;2023-03-22T13:31:58;99384.91;;;14.98;54.34
61618;BME280;47518;51.776;9.370;2023-03-22T13:34:47;99378.66;;;14.91;52.92
61618;BME280;47518;51.776;9.370;2023-03-22T13:37:33;99382.06;;;14.86;53.93
61618;BME280;47518;51.776;9.370;2023-03-22T13:40:01;99380.50;;;14.97;54.04
61618;BME280;47518;51.776;9.370;2023-03-22T13:42:40;99366.72;;;14.85;54.75
61618;BME280;47518;51.776;9.370;2023-03-22T13:45:08;99372.88;;;14.99;54.31
61618;BME280;47518;51.776;9.370;2023-03-22T13:48:09;99372.66;;;15.01;54.36
61618;BME280;47518;51.776;9.370;2023-03-22T13:50:40;99366.34;;;14.82;55.31
61618;BME280;47518;51.776;9.370;2023-03-22T13:53:15;99373.03;;;14.86;54.75
61618;BME280;47518;51.776;9.370;2023-03-22T14:08:57;99365.31;;;13.77;62.27
61618;BME280;47518;51.776;9.370;2023-03-22T14:11:42;99374.81;;;13.74;63.55
61618;BME280;47518;51.776;9.370;2023-03-22T14:14:17;99362.81;;;13.75;62.67
61618;BME280;47518;51.776;9.370;2023-03-22T14:16:50;99373.81;;;13.68;62.79
61618;BME280;47518;51.776;9.370;2023-03-22T14:19:22;99372.13;;;13.67;64.17
61618;BME280;47518;51.776;9.370;2023-03-22T14:21:51;99372.00;;;13.56;66.43
61618;BME280;47518;51.776;9.370;2023-03-22T14:24:21;99383.31;;;13.53;66.24
61618;BME280;47518;51.776;9.370;2023-03-22T14:26:51;99382.09;;;13.49;67.38
61618;BME280;47518;51.776;9.370;2023-03-22T14:29:20;99398.34;;;13.30;68.81
61618;BME280;47518;51.776;9.370;2023-03-22T14:31:54;99399.66;;;13.14;68.80
61618;BME280;47518;51.776;9.370;2023-03-22T14:34:22;99400.75;;;13.00;68.12
61618;BME280;47518;51.776;9.370;2023-03-22T14:36:48;99409.34;;;13.04;70.93
61618;BME280;47518;51.776;9.370;2023-03-22T14:39:21;99397.59;;;13.03;67.01
61618;BME280;47518;51.776;9.370;2023-03-22T14:42:01;99399.91;;;12.93;68.70
61618;BME280;47518;51.776;9.370;2023-03-22T14:44:29;99390.88;;;12.99;66.38
61618;BME280;47518;51.776;9.370;2023-03-22T14:47:07;99378.03;;;13.06;66.60
61618;BME280;47518;51.776;9.370;2023-03-22T14:49:39;99377.81;;;13.14;65.52
61618;BME280;47518;51.776;9.370;2023-03-22T14:52:11;99391.22;;;13.29;66.65
61618;BME280;47518;51.776;9.370;2023-03-22T14:54:38;99383.63;;;13.38;62.63
61618;BME280;47518;51.776;9.370;2023-03-22T14:57:09;99370.50;;;13.53;61.97
61618;BME280;47518;51.776;9.370;2023-03-22T14:59:41;99374.44;;;13.64;60.81
61618;BME280;47518;51.776;9.370;2023-03-22T15:04:59;99369.25;;;13.87;59.41
61618;BME280;47518;51.776;9.370;2023-03-22T15:07:25;99370.75;;;13.83;59.22
61618;BME280;47518;51.776;9.370;2023-03-22T15:09:51;99363.22;;;13.79;59.39
61618;BME280;47518;51.776;9.370;2023-03-22T15:12:19;99356.34;;;13.69;59.46
61618;BME280;47518;51.776;9.370;2023-03-22T15:14:48;99365.78;;;13.73;59.41
61618;BME280;47518;51.776;9.370;2023-03-22T15:17:14;99364.63;;;13.88;58.88
61618;BME280;47518;51.776;9.370;2023-03-22T15:19:45;99365.16;;;13.71;60.10
61618;BME280;47518;51.776;9.370;2023-03-22T15:22:16;99362.09;;;13.86;58.22
61618;BME280;47518;51.776;9.370;2023-03-22T15:24:52;99349.78;;;13.77;58.08
61618;BME280;47518;51.776;9.370;2023-03-22T15:27:19;99366.38;;;13.76;59.36
61618;BME280;47518;51.776;9.370;2023-03-22T15:29:46;99364.59;;;13.94;58.88
61618;BME280;47518;51.776;9.370;2023-03-22T15:32:17;99357.06;;;14.15;59.29
61618;BME280;47518;51.776;9.370;2023-03-22T15:34:43;99363.22;;;13.79;59.67
61618;BME280;47518;51.776;9.370;2023-03-22T15:37:13;99354.09;;;13.91;58.49
61618;BME280;47518;51.776;9.370;2023-03-22T15:39:42;99357.25;;;13.88;57.73
61618;BME280;47518;51.776;9.370;2023-03-22T15:55:19;99372.22;;;14.11;57.50
61618;BME280;47518;51.776;9.370;2023-03-22T16:00:41;99371.75;;;13.89;57.49
61618;BME280;47518;51.776;9.370;2023-03-22T16:05:58;99373.97;;;14.05;56.98
61618;BME280;47518;51.776;9.370;2023-03-22T16:08:23;99366.41;;;14.00;58.15
61618;BME280;47518;51.776;9.370;2023-03-22T16:10:51;99363.53;;;13.95;57.34
61618;BME280;47518;51.776;9.370;2023-03-22T16:13:19;99371.69;;;14.02;57.82
61618;BME280;47518;51.776;9.370;2023-03-22T16:15:44;99370.66;;;13.96;57.07
61618;BME280;47518;51.776;9.370;2023-03-22T16:18:15;99367.75;;;13.91;57.67
61618;BME280;47518;51.776;9.370;2023-03-22T16:20:41;99371.09;;;13.93;58.20
61618;BME280;47518;51.776;9.370;2023-03-22T16:23:12;99380.19;;;14.12;56.16
61618;BME280;47518;51.776;9.370;2023-03-22T16:25:38;99371.47;;;14.28;57.22
61618;BME280;47518;51.776;9.370;2023-03-22T16:28:04;99377.16;;;14.02;56.77
61618;BME280;47518;51.776;9.370;2023-03-22T16:30:29;99382.03;;;13.93;57.82
61618;BME280;47518;51.776;9.370;2023-03-22T16:32:58;99382.16;;;14.30;57.09
61618;BME280;47518;51.776;9.370;2023-03-22T16:35:24;99383.34;;;14.16;56.66
61618;BME280;47518;51.776;9.370;2023-03-22T16:37:50;99374.94;;;13.86;57.51
61618;BME280;47518;51.776;9.370;2023-03-22T16:40:19;99379.31;;;14.18;57.31
61618;BME280;47518;51.776;9.370;2023-03-22T16:42:45;99381.31;;;14.05;57.79
61618;BME280;47518;51.776;9.370;2023-03-22T16:45:15;99376.38;;;13.88;58.83
61618;BME280;47518;51.776;9.370;2023-03-22T16:47:43;99371.59;;;13.84;59.02
61618;BME280;47518;51.776;9.370;2023-03-22T16:50:09;99368.72;;;14.04;57.45
61618;BME280;47518;51.776;9.370;2023-03-22T16:52:35;99382.38;;;14.04;57.34
61618;BME280;47518;51.776;9.370;2023-03-22T16:55:00;99382.75;;;13.82;58.25
61618;BME280;47518;51.776;9.370;2023-03-22T16:57:26;99381.47;;;13.85;58.27
61618;BME280;47518;51.776;9.370;2023-03-22T16:59:53;99391.25;;;13.67;58.60
61618;BME280;47518;51.776;9.370;2023-03-22T17:02:23;99388.53;;;13.67;59.01
61618;BME280;47518;51.776;9.370;2023-03-22T17:04:49;99399.72;;;13.91;57.26
61618;BME280;47518;51.776;9.370;2023-03-22T17:07:17;99404.41;;;13.77;56.52
61618;BME280;47518;51.776;9.370;2023-03-22T17:09:44;99410.56;;;13.66;57.22
61618;BME280;47518;51.776;9.370;2023-03-22T17:12:16;99398.38;;;13.68;56.58
61618;BME280;47518;51.776;9.370;2023-03-22T17:14:42;99387.13;;;13.52;56.70
61618;BME280;47518;51.776;9.370;2023-03-22T17:17:08;99401.13;;;13.62;57.79
61618;BME280;47518;51.776;9.370;2023-03-22T17:19:33;99398.41;;;13.62;56.80
61618;BME280;47518;51.776;9.370;2023-03-22T17:22:00;99402.44;;;13.53;56.08
61618;BME280;47518;51.776;9.370;2023-03-22T17:24:25;99395.09;;;13.53;55.96
61618;BME280;47518;51.776;9.370;2023-03-22T17:26:50;99399.28;;;13.56;56.85
61618;BME280;47518;51.776;9.370;2023-03-22T17:29:19;99395.44;;;13.63;56.54
61618;BME280;47518;51.776;9.370;2023-03-22T17:31:44;99396.59;;;13.49;56.09
61618;BME280;47518;51.776;9.370;2023-03-22T17:34:11;99401.19;;;13.55;56.62
61618;BME280;47518;51.776;9.370;2023-03-22T17:36:50;99412.13;;;13.49;56.75
61618;BME280;47518;51.776;9.370;2023-03-22T17:39:15;99409.88;;;13.39;56.71
61618;BME280;47518;51.776;9.370;2023-03-22T17:41:41;99418.81;;;13.53;56.57
61618;BME280;47518;51.776;9.370;2023-03-22T17:44:06;99412.31;;;13.54;57.29
61618;BME280;47518;51.776;9.370;2023-03-22T17:46:32;99412.53;;;13.52;57.81
61618;BME280;47518;51.776;9.370;2023-03-22T17:48:58;99414.72;;;13.30;57.50
61618;BME280;47518;51.776;9.370;2023-03-22T17:51:23;99417.63;;;13.42;57.54
61618;BME280;47518;51.776;9.370;2023-03-22T17:53:49;99417.88;;;13.27;57.93
61618;BME280;47518;51.776;9.370;2023-03-22T17:56:16;99414.25;;;13.40;57.02
61618;BME280;47518;51.776;9.370;2023-03-22T17:58:41;99421.81;;;13.45;56.53